Daniel Field
KDNL : rendu visible

Aérodrome :











RETROUVEZ-NOUS SUR...

 
LOGIN :

S'inscrire | Disclaimer

   EN    FR    IT 

 









Légende :    VFR   VFR Marginal   IFR   IFR Intensif   IFR Très Intensif
Visi : 
Plafond : 
>= 8 km
>= 3000ft
5 à 8 km
1000 à 3000 ft
1500m à 5 km
500 à 1000 ft
800 à 1500m
200 à 500 ft
< 800m
< 200 ft
Symboles :   Orages  Brouillard  Fortes neiges  Fortes précipitations  Vent > 20 kt






- Altitude de l'aérodrome : 423 ft


KDNL - Daniel Field

DERNIER METAR :
  • 222253Z AUTO 00000KT 10SM OVC110 19/10 A3002 RMK AO2 SLP164 T01890100 TSNO

METARs EXPIRÉS :
  • 222153Z AUTO 00000KT 10SM CLR 20/09 A3002 RMK AO2 SLP164 T02000094 TSNO
  • 222053Z AUTO 21008KT 10SM CLR 21/11 A3003 RMK AO2 SLP165 T02110111 56018 TSNO

TAF KDNL
Valide du 22 à 21h jusqu'au 23 à 18h UTC


222045Z 2221/2318 20008KT P6SM SCT035 BKN150
FM230000 VRB03KT P6SM OVC050
FM230800 00000KT P6SM VCSH SCT015 OVC035
FM231200 20004KT P6SM VCSH SCT008 OVC012



MET'MAP, la Météo Aéronautique d'un coup d'oeil ! - Copyright ORBIFLY Décembre 2007 - Disclaimer

ORBIFLY MET'MAP TEAM :

Programmation & Développement : Alexandra Zaïnal
Conception & Développement : Baudouin d'Aumeries
Co-Programmation & Développement : Marc-Olivier Méhu
Soutien technique & logistique : Manuel Goepfert

Contact : metmap@orbifly.com




SOURCES & CREDITS :

   NOAA       Earth
Advisory